Stringtown, Iowa
Current Conditions -  °F | °C
As of 3:15 AM on Thursday 23 Oct 2014 (Local Time) from KCSQ Reporting Station
Light Rain Light Rain  
Wind Chill: 12°   Ceiling: 7000
Heat Index: 12°   Visibility: 8mi
Dew Point: 11°   Wind: 10mph
Humidity: 94%   Direction: 180°S
Pressure: 30.08"   Gusts: NA
Location:  40.8856°N, 94.5654°W
Report Text: KCSQ 230815Z AUTO 18009KT 8SM -RA FEW039 FEW055 BKN070 12/11 A3008 RMK AO2
Loading
Personal Weather Stations






























Interactive Weather Map
Tropical Storm Tracking
New forecast layout! Learn more

10-Day Weather Forecast

Advertisements
Track Severe Weather on mobile